VVDN/DAD METAR and TAF weather

Enter ICAO airport designator
Station Type Date Time Source
VVDN METAR 2019/06/26 18:00 UTC NOAA

VVDN 261800Z VRB02KT CAVOK 30/23 Q1003 NOSIG


Station Type Date Time Source
VVDN Decoded METAR 2019/06/26 18:00 UTC NOAA

Da Nang, Vietnam (VVDN) 16-02N 108-11E 7M
Jun 26, 2019 - 02:00 PM EDT / 2019.06.26 1800 UTC
Wind: Variable at 2 MPH (2 KT):0
Visibility: greater than 7 mile(s):0
Temperature: 86 F (30 C)
Heat index: 93.4 F (34.1 C):1
Dew Point: 73 F (23 C)
Relative Humidity: 66%
Pressure (altimeter): 29.62 in. Hg (1003 hPa)
ob: VVDN 261800Z VRB02KT CAVOK 30/23 Q1003 NOSIG
cycle: 18

Station Type Date Time Source
VVDN TAF 2019/06/26 18:36 UTC NOAA

TAF VVDN 261700Z 2618/2718 26007KT 9999 FEW015

Example: see airport list